Time;durP1;ratioP1;P1;durP2;ratioP2;P2;SDS_P1;SDS_P2;PMS_P1;PMS_P2;Temp;Humidity;BMP_temperature;BMP_pressure;BME280_temperature;BME280_humidity;BME280_pressure;Samples;Min_cycle;Max_cycle;Signal;HPM_P1;HPM_P2
2022/11/24 00:01:15;;;;;;;42.22;25.90;;;;;;;9.94;100.00;99063.22;5067815;28;20524;-36
2022/11/24 00:03:41;;;;;;;46.28;26.00;;;;;;;9.80;100.00;99056.56;5067927;28;20055;-33
2022/11/24 00:06:10;;;;;;;50.17;27.73;;;;;;;9.80;100.00;99053.91;5049613;28;20121;-28
2022/11/24 00:08:35;;;;;;;;;;;;;;;9.62;100.00;99077.03;5068189;28;20712;-30
2022/11/24 00:11:03;;;;;;;76.25;36.97;;;;;;;9.38;100.00;99070.16;5067467;28;19990;-27
2022/11/24 00:13:28;;;;;;;66.30;32.85;;;;;;;9.54;100.00;99069.41;5067299;28;20020;-27
2022/11/24 00:15:54;;;;;;;61.55;31.88;;;;;;;9.73;100.00;99075.38;5066796;28;20454;-28
2022/11/24 00:18:19;;;;;;;54.53;30.02;;;;;;;9.71;100.00;99066.00;5049135;28;20025;-26
2022/11/24 00:20:51;;;;;;;61.10;31.02;;;;;;;9.81;100.00;99076.84;5049179;28;20627;-26
2022/11/24 00:23:16;;;;;;;59.08;30.02;;;;;;;9.79;100.00;99066.44;5067387;28;20017;-28
2022/11/24 00:25:42;;;;;;;52.92;29.20;;;;;;;9.81;100.00;99068.84;5067216;28;20047;-27
2022/11/24 00:28:07;;;;;;;60.47;32.45;;;;;;;9.49;100.00;99057.84;5067470;28;20027;-27
2022/11/24 00:30:32;;;;;;;63.30;32.03;;;;;;;9.30;100.00;99059.88;5067522;28;20028;-30
2022/11/24 00:32:58;;;;;;;65.18;34.08;;;;;;;9.23;100.00;99060.81;5067572;28;20488;-28
2022/11/24 00:35:23;;;;;;;73.90;34.65;;;;;;;9.16;100.00;99081.41;5067063;28;20031;-27
2022/11/24 00:37:48;;;;;;;73.95;35.13;;;;;;;9.16;100.00;99054.81;5066956;28;20036;-26
2022/11/24 00:40:14;;;;;;;85.57;39.15;;;;;;;9.36;100.00;99074.91;5066991;28;20396;-27
2022/11/24 00:42:39;;;;;;;87.03;40.13;;;;;;;9.34;100.00;99063.69;5067113;28;20488;-27
2022/11/24 00:45:05;;;;;;;78.20;37.88;;;;;;;9.33;100.00;99059.41;5067141;28;20051;-26
2022/11/24 00:47:31;;;;;;;77.43;34.65;;;;;;;9.40;100.00;99068.06;5067202;28;20071;-29
2022/11/24 00:49:57;;;;;;;69.20;35.00;;;;;;;9.51;100.00;99085.84;5048534;28;20048;-28
2022/11/24 00:52:22;;;;;;;61.17;31.83;;;;;;;9.16;100.00;99080.59;5066524;28;20029;-28
2022/11/24 00:54:48;;;;;;;67.28;32.17;;;;;;;8.97;100.00;99093.19;5066878;28;20115;-27
2022/11/24 00:57:13;;;;;;;56.85;31.02;;;;;;;9.01;100.00;99081.06;5067118;28;20024;-26
2022/11/24 00:59:38;;;;;;;56.05;28.58;;;;;;;8.59;100.00;99075.88;5066729;28;20142;-26
2022/11/24 01:02:04;;;;;;;48.85;26.83;;;;;;;8.78;100.00;99063.28;5066593;28;20461;-27
2022/11/24 01:04:29;;;;;;;53.35;27.40;;;;;;;8.87;100.00;99080.50;5048717;28;20089;-29
2022/11/24 01:06:54;;;;;;;43.72;26.50;;;;;;;8.96;100.00;99104.91;5048780;28;20025;-26
2022/11/24 01:09:20;;;;;;;45.25;26.58;;;;;;;8.87;100.00;99087.66;5066738;28;20531;-27
2022/11/24 01:12:00;;;;;;;54.65;25.30;;;;;;;8.93;100.00;99074.28;5066654;28;20036;-27
2022/11/24 01:14:26;;;;;;;45.85;25.98;;;;;;;9.05;100.00;99084.88;5066888;28;20102;-26
2022/11/24 01:16:52;;;;;;;42.20;25.30;;;;;;;8.85;100.00;99102.00;5048621;28;20454;-28
2022/11/24 01:19:18;;;;;;;45.05;24.33;;;;;;;9.19;100.00;99091.59;5066744;28;20542;-32
2022/11/24 01:21:44;;;;;;;43.42;24.25;;;;;;;9.20;100.00;99087.88;5066570;28;20029;-28
2022/11/24 01:24:10;;;;;;;38.03;23.00;;;;;;;9.23;100.00;99098.06;5048484;28;20400;-29
2022/11/24 01:26:35;;;;;;;41.05;26.02;;;;;;;9.36;100.00;99096.19;5066768;28;20035;-27
2022/11/24 01:29:01;;;;;;;43.08;25.40;;;;;;;9.22;100.00;99085.78;5066434;28;20032;-27
2022/11/24 01:31:26;;;;;;;45.72;25.33;;;;;;;9.14;100.00;99104.78;5048794;28;20024;-26
2022/11/24 01:33:52;;;;;;;40.88;25.08;;;;;;;9.12;100.00;99104.19;5066461;28;20039;-26
2022/11/24 01:36:18;;;;;;;44.67;24.92;;;;;;;9.20;100.00;99098.50;5066634;28;20024;-28
2022/11/24 01:38:44;;;;;;;43.08;26.48;;;;;;;9.20;100.00;99084.41;5066516;28;20045;-28
2022/11/24 01:41:13;;;;;;;43.28;25.40;;;;;;;9.24;100.00;99097.00;5066416;28;20060;-28
2022/11/24 01:43:40;;;;;;;45.72;26.58;;;;;;;9.05;100.00;99084.88;5066541;28;20454;-26
2022/11/24 01:46:32;;;;;;;37.22;23.10;;;;;;;8.76;100.00;99098.06;5066360;28;20097;-27
2022/11/24 01:49:07;;;;;;;42.08;23.58;;;;;;;8.84;100.00;99103.03;5066448;28;20060;-28
2022/11/24 01:51:40;;;;;;;38.13;23.85;;;;;;;8.80;100.00;99093.91;5048022;28;20033;-30
2022/11/24 01:54:14;;;;;;;40.20;23.73;;;;;;;9.01;100.00;99099.69;5066421;28;20032;-27
2022/11/24 01:56:43;;;;;;;47.22;26.52;;;;;;;9.09;100.00;99088.69;5066604;28;20485;-27
2022/11/24 01:59:11;;;;;;;76.63;33.70;;;;;;;9.12;100.00;99098.88;5066493;28;20032;-27
2022/11/24 02:01:36;;;;;;;82.25;37.28;;;;;;;9.30;100.00;99091.81;5066263;28;20024;-27
2022/11/24 02:04:05;;;;;;;64.78;31.50;;;;;;;9.11;100.00;99093.78;5066599;28;20086;-26
2022/11/24 02:06:34;;;;;;;59.33;29.67;;;;;;;9.08;100.00;99096.91;5051429;28;20032;-29
2022/11/24 02:09:10;;;;;;;48.50;27.25;;;;;;;9.04;100.00;99093.91;5051770;28;20119;-28
2022/11/24 02:11:38;;;;;;;43.85;25.35;;;;;;;8.87;100.00;99083.16;5070229;28;20028;-27
2022/11/24 02:14:10;;;;;;;44.75;25.10;;;;;;;8.79;100.00;99081.66;5069483;28;20032;-28
2022/11/24 02:16:37;;;;;;;45.13;25.10;;;;;;;8.58;100.00;99080.38;5068074;28;20028;-28
2022/11/24 02:19:18;;;;;;;43.05;24.58;;;;;;;8.64;100.00;99081.28;5051904;28;20386;-27
2022/11/24 02:21:44;;;;;;;39.05;22.45;;;;;;;8.45;100.00;99064.66;5069476;28;20052;-27
2022/11/24 02:24:31;;;;;;;36.38;23.65;;;;;;;8.40;100.00;99083.13;5069591;28;20063;-26
2022/11/24 02:26:56;;;;;;;37.05;22.60;;;;;;;8.51;100.00;99068.25;5069624;28;20036;-26
2022/11/24 02:29:22;;;;;;;39.20;22.90;;;;;;;8.32;100.00;99065.66;5069971;28;20036;-28
2022/11/24 02:31:53;;;;;;;35.47;22.13;;;;;;;8.51;100.00;99068.25;5069273;28;20082;-27
2022/11/24 02:34:19;;;;;;;38.15;22.30;;;;;;;8.55;100.00;99075.53;5068155;28;20024;-29
2022/11/24 02:36:45;;;;;;;40.22;22.85;;;;;;;8.44;100.00;99069.16;5070895;28;20546;-26
2022/11/24 02:39:12;;;;;;;39.05;22.50;;;;;;;8.26;100.00;99077.19;5089568;28;20458;-32
2022/11/24 02:41:43;;;;;;;40.40;23.55;;;;;;;8.32;100.00;99065.66;5089408;28;20054;-26
2022/11/24 02:44:09;;;;;;;40.13;23.20;;;;;;;8.16;100.00;99068.97;5089756;28;20054;-29
2022/11/24 02:46:34;;;;;;;37.90;22.15;;;;;;;8.17;100.00;99079.38;5071022;28;20411;-29
2022/11/24 02:49:00;;;;;;;40.97;23.48;;;;;;;8.07;100.00;99072.97;5070921;28;20135;-27
2022/11/24 02:51:25;;;;;;;51.40;24.70;;;;;;;7.91;100.00;99059.31;5071012;28;20446;-27
2022/11/24 02:53:50;;;;;;;58.33;27.42;;;;;;;7.70;100.00;99063.25;5070723;28;20102;-28
2022/11/24 02:56:16;;;;;;;67.35;31.88;;;;;;;7.82;100.00;99084.53;5088870;28;20030;-30
2022/11/24 02:58:41;;;;;;;69.97;32.78;;;;;;;7.79;100.00;99061.13;5070776;28;20032;-29
2022/11/24 03:01:07;;;;;;;50.70;25.88;;;;;;;7.92;100.00;99079.50;5089482;28;20028;-29
2022/11/24 03:03:33;;;;;;;40.50;23.77;;;;;;;7.68;100.00;99049.41;5070516;28;20093;-30
2022/11/24 03:05:58;;;;;;;41.80;22.88;;;;;;;7.73;100.00;99069.97;5088883;28;20110;-30
2022/11/24 03:08:23;;;;;;;40.17;22.70;;;;;;;7.50;100.00;99071.50;5070567;28;20043;-26
2022/11/24 03:10:49;;;;;;;37.03;19.60;;;;;;;6.99;100.00;99062.06;5088771;28;20491;-29
2022/11/24 03:13:14;;;;;;;35.90;19.52;;;;;;;6.87;100.00;99063.84;5070709;28;20494;-31
2022/11/24 03:15:40;;;;;;;30.13;19.30;;;;;;;6.68;100.00;99061.16;5088554;28;20415;-27
2022/11/24 03:18:05;;;;;;;28.70;17.08;;;;;;;6.70;100.00;99058.28;5088715;28;20036;-29
2022/11/24 03:20:31;;;;;;;39.25;19.08;;;;;;;6.62;100.00;99056.72;5088886;28;20137;-26
2022/11/24 03:22:57;;;;;;;32.30;20.23;;;;;;;6.56;100.00;99068.16;5070266;28;20027;-27
2022/11/24 03:25:22;;;;;;;34.95;20.58;;;;;;;6.49;100.00;99083.31;5088286;28;20039;-30
2022/11/24 03:27:47;;;;;;;32.60;20.38;;;;;;;6.40;100.00;99075.63;5070022;28;20111;-27
2022/11/24 03:30:13;;;;;;;30.67;19.67;;;;;;;6.08;100.00;99072.19;5088510;28;20042;-28
2022/11/24 03:32:39;;;;;;;36.00;21.60;;;;;;;5.98;100.00;99061.28;5069983;28;20043;-26
2022/11/24 03:35:04;;;;;;;34.83;21.45;;;;;;;6.03;100.00;99101.97;5088512;28;20028;-31
2022/11/24 03:37:30;;;;;;;29.98;18.52;;;;;;;5.98;100.00;99106.25;5088309;28;20028;-28
2022/11/24 03:39:55;;;;;;;35.45;19.00;;;;;;;5.97;100.00;99113.41;5088222;28;20438;-27
2022/11/24 03:42:21;;;;;;;33.05;18.85;;;;;;;6.09;100.00;99110.06;5088353;28;20032;-28
2022/11/24 03:44:47;;;;;;;30.48;18.65;;;;;;;5.86;100.00;99087.56;5069885;28;20043;-27
2022/11/24 03:47:12;;;;;;;36.25;20.45;;;;;;;6.00;100.00;99118.25;5088098;28;20028;-28
2022/11/24 03:49:39;;;;;;;32.40;18.05;;;;;;;5.97;100.00;99107.31;5087877;28;20097;-27
2022/11/24 03:52:04;;;;;;;41.92;19.30;;;;;;;6.29;100.00;99131.94;5087576;28;20084;-31
2022/11/24 03:54:29;;;;;;;40.90;18.38;;;;;;;6.11;100.00;99113.31;5088056;28;20040;-29
2022/11/24 03:56:55;;;;;;;37.42;20.73;;;;;;;6.31;100.00;99132.53;5087755;28;20107;-29
2022/11/24 03:59:20;;;;;;;35.22;20.30;;;;;;;6.77;100.00;99136.69;5088379;28;20723;-27
2022/11/24 04:01:46;;;;;;;34.60;19.15;;;;;;;6.91;100.00;99118.84;5087875;28;20503;-27
2022/11/24 04:04:12;;;;;;;42.88;19.35;;;;;;;6.89;100.00;99141.28;5088206;28;20063;-27
2022/11/24 04:06:38;;;;;;;31.33;19.20;;;;;;;6.57;100.00;99150.06;5069530;28;20389;-26
2022/11/24 04:09:03;;;;;;;39.63;19.75;;;;;;;6.54;100.00;99149.69;5087549;28;20492;-28
2022/11/24 04:14:13;;;;;;;31.38;19.27;;;;;;;6.97;100.00;99149.75;5087935;28;20101;-27
2022/11/24 04:16:38;;;;;;;32.05;18.67;;;;;;;7.03;100.00;99154.19;5087666;28;20024;-27
2022/11/24 04:19:05;;;;;;;31.55;19.15;;;;;;;6.78;100.00;99134.84;5087718;28;20036;-28
2022/11/24 04:21:30;;;;;;;33.78;19.55;;;;;;;6.96;100.00;99145.47;5087677;28;20095;-27
2022/11/24 04:23:55;;;;;;;31.42;18.38;;;;;;;7.04;100.00;99152.34;5068808;28;20034;-28
2022/11/24 04:26:21;;;;;;;31.08;18.20;;;;;;;7.17;100.00;99162.00;5087584;28;20036;-27
2022/11/24 04:28:46;;;;;;;32.67;18.17;;;;;;;7.20;100.00;99167.69;5087212;28;20653;-29
2022/11/24 04:31:11;;;;;;;29.52;17.17;;;;;;;7.36;100.00;99152.25;5087801;28;20381;-27
2022/11/24 04:33:37;;;;;;;35.88;18.10;;;;;;;7.58;100.00;99171.19;5087417;28;20137;-26
2022/11/24 04:36:02;;;;;;;36.03;18.15;;;;;;;7.68;100.00;99175.97;5086964;28;20034;-29
2022/11/24 04:38:28;;;;;;;29.15;17.27;;;;;;;7.35;100.00;99155.94;5086938;28;20020;-30
2022/11/24 04:40:53;;;;;;;30.27;17.50;;;;;;;7.42;100.00;99151.38;5069015;28;20407;-28
2022/11/24 04:43:20;;;;;;;31.67;17.55;;;;;;;7.54;100.00;99154.09;5087404;28;20475;-28
2022/11/24 04:45:46;;;;;;;31.58;17.85;;;;;;;7.54;100.00;99173.50;5087187;28;20031;-27
2022/11/24 04:48:11;;;;;;;32.53;17.67;;;;;;;7.62;100.00;99167.06;5087376;28;20055;-27
2022/11/24 04:50:38;;;;;;;34.78;19.65;;;;;;;7.55;100.00;99147.75;5086862;28;20055;-29
2022/11/24 04:53:04;;;;;;;28.50;16.58;;;;;;;7.57;100.00;99145.69;5068534;28;20028;-26
2022/11/24 04:55:29;;;;;;;31.40;19.13;;;;;;;7.72;100.00;99174.50;5087230;28;20035;-27
2022/11/24 04:57:55;;;;;;;27.60;16.08;;;;;;;7.56;100.00;99152.84;5086853;28;20539;-27
2022/11/24 05:00:20;;;;;;;29.45;16.33;;;;;;;7.40;100.00;99164.84;5087240;28;20121;-27
2022/11/24 05:02:46;;;;;;;28.30;16.05;;;;;;;7.28;100.00;99171.91;5086684;28;20043;-27
2022/11/24 05:05:12;;;;;;;31.65;17.05;;;;;;;7.29;100.00;99165.56;5086812;28;20040;-27
2022/11/24 05:07:37;;;;;;;35.42;20.48;;;;;;;7.43;100.00;99184.81;5086664;28;20036;-30
2022/11/24 05:12:55;;;;;;;36.58;18.48;;;;;;;7.56;100.00;99192.66;5086912;28;20031;-28
2022/11/24 05:15:20;;;;;;;30.98;19.33;;;;;;;7.54;100.00;99177.97;5068488;28;20106;-27
2022/11/24 05:17:46;;;;;;;30.17;16.45;;;;;;;7.53;100.00;99179.81;5086563;28;20476;-27
2022/11/24 05:20:11;;;;;;;28.40;17.55;;;;;;;7.50;100.00;99174.13;5068504;28;20036;-28
2022/11/24 05:22:36;;;;;;;31.63;18.05;;;;;;;7.63;100.00;99196.03;5086933;28;20039;-29
2022/11/24 05:25:02;;;;;;;34.40;18.02;;;;;;;7.82;100.00;99204.78;5086848;28;20077;-29
2022/11/24 05:27:28;;;;;;;32.08;17.58;;;;;;;7.83;100.00;99189.69;5087039;28;20103;-28
2022/11/24 05:29:53;;;;;;;29.48;17.20;;;;;;;7.76;100.00;99199.56;5086625;28;20062;-27
2022/11/24 05:32:19;;;;;;;30.73;17.77;;;;;;;7.76;100.00;99194.25;5086839;28;20032;-27
2022/11/24 05:34:44;;;;;;;32.30;18.40;;;;;;;7.98;100.00;99208.69;5068089;28;20032;-28
2022/11/24 05:37:10;;;;;;;34.00;21.08;;;;;;;8.02;100.00;99203.75;5086779;28;20028;-26
2022/11/24 05:39:36;;;;;;;42.70;24.75;;;;;;;8.02;100.00;99185.97;5088377;28;20028;-29
2022/11/24 05:44:47;;;;;;;48.67;29.27;;;;;;;8.11;100.00;99209.56;5090901;28;20031;-26
2022/11/24 05:47:13;;;;;;;34.35;19.38;;;;;;;8.07;100.00;99211.03;5055336;28;20032;-27
2022/11/24 05:49:38;;;;;;;34.72;17.95;;;;;;;7.93;100.00;99192.63;5071830;28;20086;-29
2022/11/24 05:52:03;;;;;;;43.72;20.77;;;;;;;8.11;100.00;99206.91;5090242;28;20032;-28
2022/11/24 05:54:29;;;;;;;54.35;24.05;;;;;;;7.95;100.00;99209.16;5090530;28;20024;-28
2022/11/24 05:56:55;;;;;;;33.63;16.23;;;;;;;7.97;100.00;99212.41;5090269;28;20016;-27
2022/11/24 05:59:20;;;;;;;43.35;18.38;;;;;;;7.93;100.00;99197.16;5090288;28;20119;-27
2022/11/24 06:01:46;;;;;;;36.42;16.73;;;;;;;8.19;100.00;99225.19;5089767;28;20519;-26
2022/11/24 06:04:11;;;;;;;27.20;14.50;;;;;;;8.10;100.00;99200.78;5090224;28;20090;-28
2022/11/24 06:06:37;;;;;;;26.63;13.38;;;;;;;8.13;100.00;99216.31;5090294;28;20039;-29
2022/11/24 06:09:03;;;;;;;32.55;13.40;;;;;;;8.12;100.00;99219.16;5090266;28;20032;-27
2022/11/24 06:11:28;;;;;;;34.83;16.38;;;;;;;8.12;100.00;99216.50;5090224;28;20063;-28
2022/11/24 06:13:53;;;;;;;30.50;14.63;;;;;;;7.96;100.00;99221.38;5089644;28;20055;-28
2022/11/24 06:16:19;;;;;;;27.48;13.98;;;;;;;8.09;100.00;99212.47;5071475;28;20030;-29
2022/11/24 06:18:44;;;;;;;23.65;11.43;;;;;;;8.26;100.00;99217.97;5089861;28;20084;-27
2022/11/24 06:21:10;;;;;;;23.38;12.75;;;;;;;8.22;100.00;99225.56;5089852;28;20028;-27
2022/11/24 06:23:35;;;;;;;27.45;14.02;;;;;;;8.27;100.00;99214.25;5089746;28;20039;-26
2022/11/24 06:26:01;;;;;;;25.17;13.65;;;;;;;8.34;100.00;99201.72;5089773;28;20139;-27
2022/11/24 06:28:27;;;;;;;22.65;12.88;;;;;;;8.56;100.00;99233.13;5089781;28;20468;-27
2022/11/24 06:30:52;;;;;;;22.70;12.30;;;;;;;8.67;100.00;99248.31;5089529;28;20066;-30
2022/11/24 06:33:18;;;;;;;22.88;13.27;;;;;;;8.90;100.00;99241.44;5089806;28;20485;-27
2022/11/24 06:35:44;;;;;;;19.35;11.88;;;;;;;9.07;99.48;99241.56;5089144;28;20050;-28
2022/11/24 06:38:09;;;;;;;24.02;12.65;;;;;;;9.09;99.60;99261.56;5071265;28;20036;-30
2022/11/24 06:40:35;;;;;;;44.58;21.90;;;;;;;9.11;99.26;99251.50;5089420;28;20073;-27
2022/11/24 06:43:00;;;;;;;54.58;25.73;;;;;;;9.15;98.67;99250.00;5089420;28;20097;-27
2022/11/24 06:45:26;;;;;;;31.63;15.70;;;;;;;9.33;98.08;99250.97;5089095;28;20036;-32
2022/11/24 06:47:54;;;;;;;28.95;12.60;;;;;;;9.13;98.79;99246.78;5089187;28;20040;-30
2022/11/24 06:50:20;;;;;;;20.13;10.70;;;;;;;8.99;99.92;99248.84;5070406;28;20056;-27
2022/11/24 06:52:46;;;;;;;21.50;11.63;;;;;;;9.13;100.00;99252.09;5089042;28;20393;-28
2022/11/24 06:55:11;;;;;;;24.25;11.25;;;;;;;9.23;100.00;99249.72;5071015;28;20031;-29
2022/11/24 06:57:37;;;;;;;23.30;12.05;;;;;;;9.37;100.00;99258.25;5071014;28;20113;-28
2022/11/24 07:00:06;;;;;;;24.90;11.90;;;;;;;9.62;100.00;99254.56;5088768;28;20471;-31
2022/11/24 07:02:32;;;;;;;22.83;11.27;;;;;;;9.76;100.00;99244.47;5089034;28;20028;-26
2022/11/24 07:04:57;;;;;;;37.28;16.02;;;;;;;9.85;100.00;99243.09;5089047;28;20031;-28
2022/11/24 07:07:23;;;;;;;25.60;13.43;;;;;;;10.06;100.00;99269.09;5089222;28;20031;-27
2022/11/24 07:09:48;;;;;;;22.40;11.75;;;;;;;9.98;99.90;99242.81;5070567;28;20097;-27
2022/11/24 07:12:14;;;;;;;23.48;11.55;;;;;;;10.21;99.24;99262.44;5054033;28;20032;-28
2022/11/24 07:14:39;;;;;;;22.60;11.15;;;;;;;10.27;97.91;99267.63;5088658;28;20039;-30
2022/11/24 07:17:04;;;;;;;28.30;12.93;;;;;;;10.27;96.93;99261.50;5088831;28;20028;-29
2022/11/24 07:19:30;;;;;;;27.70;13.85;;;;;;;10.51;94.88;99245.47;5088774;28;20629;-27
2022/11/24 07:21:56;;;;;;;20.67;11.23;;;;;;;10.55;94.45;99263.41;5088969;28;20028;-28
2022/11/24 07:24:21;;;;;;;25.88;12.73;;;;;;;10.60;93.98;99268.03;5070359;28;20031;-27
2022/11/24 07:26:47;;;;;;;32.35;14.77;;;;;;;10.61;93.58;99267.00;5088618;28;20599;-27
2022/11/24 07:29:12;;;;;;;18.63;11.48;;;;;;;10.39;94.47;99264.97;5088304;28;20032;-30
2022/11/24 07:31:38;;;;;;;17.98;9.88;;;;;;;10.56;93.38;99264.22;5070528;28;20035;-29
2022/11/24 07:34:04;;;;;;;18.77;10.88;;;;;;;10.33;94.22;99249.94;5088403;28;20119;-30
2022/11/24 07:36:29;;;;;;;16.98;9.35;;;;;;;10.61;94.20;99261.66;5088560;28;20020;-28
2022/11/24 07:38:54;;;;;;;18.23;10.13;;;;;;;10.88;92.14;99264.53;5088429;28;20123;-27
2022/11/24 07:41:20;;;;;;;20.85;10.32;;;;;;;11.11;92.63;99255.56;5088379;28;20085;-28
2022/11/24 07:43:46;;;;;;;17.85;9.80;;;;;;;11.12;89.97;99240.41;5069740;28;20055;-28
2022/11/24 07:46:13;;;;;;;18.88;9.60;;;;;;;11.39;88.35;99253.88;5088364;28;20063;-27
2022/11/24 07:48:39;;;;;;;17.30;10.00;;;;;;;11.54;86.08;99259.44;5086904;28;20049;-28
2022/11/24 07:51:05;;;;;;;17.05;8.45;;;;;;;11.55;85.13;99255.72;5069681;28;20093;-30
2022/11/24 07:53:32;;;;;;;16.23;9.13;;;;;;;11.26;84.86;99244.34;5069982;28;20036;-27
2022/11/24 07:56:00;;;;;;;15.88;8.82;;;;;;;11.31;86.33;99264.97;5087820;28;20114;-26
2022/11/24 07:58:26;;;;;;;;;;;;;;;11.41;83.46;99265.13;5088080;28;20075;-25
2022/11/24 08:00:52;;;;;;;17.63;9.63;;;;;;;11.49;84.78;99270.06;5087811;28;19924;-28
2022/11/24 08:03:18;;;;;;;15.63;8.82;;;;;;;11.37;85.08;99261.31;5086750;28;20039;-27
2022/11/24 08:05:52;;;;;;;16.48;9.38;;;;;;;11.34;85.86;99256.47;5087300;28;20028;-29
2022/11/24 08:08:18;;;;;;;14.57;7.97;;;;;;;11.49;84.71;99271.94;5087734;28;20107;-27
2022/11/24 08:10:43;;;;;;;16.17;7.47;;;;;;;11.44;83.24;99248.59;5087610;28;20128;-27
2022/11/24 08:13:08;;;;;;;10.90;6.20;;;;;;;11.66;82.73;99252.13;5087502;28;20417;-27
2022/11/24 08:15:34;;;;;;;12.57;6.90;;;;;;;11.73;83.00;99275.19;5069046;28;20036;-28
2022/11/24 08:18:01;;;;;;;12.57;6.75;;;;;;;11.92;81.83;99260.53;5087525;28;20103;-26
2022/11/24 08:20:26;;;;;;;10.25;6.45;;;;;;;11.99;81.02;99277.22;5087500;28;20439;-30
2022/11/24 08:22:56;;;;;;;12.38;6.85;;;;;;;11.65;81.94;99266.56;5087673;28;20040;-28
2022/11/24 08:25:24;;;;;;;14.43;7.30;;;;;;;12.07;82.84;99283.97;5069218;28;20040;-27
2022/11/24 08:27:49;;;;;;;14.10;7.53;;;;;;;12.33;80.43;99282.44;5087287;28;20027;-29
2022/11/24 08:30:15;;;;;;;15.40;7.57;;;;;;;12.42;80.07;99267.56;5069192;28;20502;-28
2022/11/24 08:32:40;;;;;;;13.07;7.10;;;;;;;12.42;80.70;99264.91;5069400;28;20476;-28
2022/11/24 08:35:06;;;;;;;16.85;8.48;;;;;;;12.58;80.66;99278.41;5087359;28;20032;-27
2022/11/24 08:37:31;;;;;;;11.40;7.18;;;;;;;12.22;80.06;99264.66;5087425;28;20750;-28
2022/11/24 08:39:57;;;;;;;15.48;7.57;;;;;;;12.99;79.44;99286.84;5068432;28;20028;-28
2022/11/24 08:42:22;;;;;;;10.43;5.90;;;;;;;12.96;77.41;99260.63;5087530;28;20453;-32
2022/11/24 08:44:48;;;;;;;17.63;8.35;;;;;;;13.19;76.37;99268.28;5087614;28;20031;-28
2022/11/24 08:47:13;;;;;;;14.82;7.50;;;;;;;13.59;75.77;99276.94;5086890;28;20035;-27
2022/11/24 08:49:39;;;;;;;17.33;9.30;;;;;;;13.56;76.00;99261.38;5086984;28;20052;-26
2022/11/24 08:52:05;;;;;;;13.60;7.47;;;;;;;13.68;74.54;99263.84;5086633;28;20048;-28
2022/11/24 08:54:31;;;;;;;14.02;8.00;;;;;;;13.74;74.28;99276.22;5086923;28;20024;-30
2022/11/24 08:56:56;;;;;;;13.43;8.07;;;;;;;13.86;74.67;99276.81;5086904;28;20081;-28
2022/11/24 08:59:22;;;;;;;14.93;7.25;;;;;;;13.80;74.66;99277.88;5086856;28;20028;-28
2022/11/24 09:01:48;;;;;;;13.48;7.10;;;;;;;13.89;73.41;99260.22;5086564;28;20721;-30
2022/11/24 09:04:13;;;;;;;10.93;6.80;;;;;;;14.13;72.92;99274.00;5086934;28;20061;-29
2022/11/24 09:06:38;;;;;;;10.55;6.13;;;;;;;14.07;72.05;99259.75;5086739;28;20028;-30
2022/11/24 09:09:04;;;;;;;10.13;5.63;;;;;;;14.11;71.30;99278.03;5086701;28;20020;-31
2022/11/24 09:11:32;;;;;;;10.15;6.45;;;;;;;13.81;72.23;99272.25;5087447;28;20028;-26
2022/11/24 09:13:58;;;;;;;11.90;6.80;;;;;;;13.94;72.79;99273.66;5088990;28;20110;-30
2022/11/24 09:16:26;;;;;;;9.75;5.82;;;;;;;13.92;73.00;99266.94;5091001;28;20177;-29
2022/11/24 09:19:00;;;;;;;9.65;6.35;;;;;;;14.29;72.62;99272.19;5072736;28;20056;-31
2022/11/24 09:21:26;;;;;;;11.50;6.22;;;;;;;14.07;72.77;99272.38;5090924;28;20032;-28
2022/11/24 09:23:53;;;;;;;10.63;5.93;;;;;;;14.24;73.11;99253.38;5071911;28;20035;-28
2022/11/24 09:26:29;;;;;;;9.63;5.82;;;;;;;14.96;69.29;99267.03;5090903;28;20040;-26
2022/11/24 09:28:56;;;;;;;11.88;6.72;;;;;;;14.96;70.62;99257.09;5091138;28;20031;-26
2022/11/24 09:31:25;;;;;;;12.07;7.15;;;;;;;15.27;68.73;99267.84;5091006;28;20114;-26
2022/11/24 09:33:51;;;;;;;13.55;7.45;;;;;;;14.96;69.47;99242.84;5072085;28;20498;-28
2022/11/24 09:36:17;;;;;;;9.30;5.65;;;;;;;15.31;70.39;99246.63;5071955;28;20101;-29
2022/11/24 09:38:42;;;;;;;10.05;6.20;;;;;;;15.65;68.59;99242.25;5091170;28;20495;-28
2022/11/24 09:41:23;;;;;;;12.52;6.95;;;;;;;15.45;69.34;99245.00;5072208;28;20028;-27
2022/11/24 09:44:25;;;;;;;10.35;6.25;;;;;;;15.43;69.21;99247.13;5090350;28;20478;-31
2022/11/24 09:47:05;;;;;;;10.30;6.63;;;;;;;15.61;69.45;99243.06;5089190;28;20027;-28
2022/11/24 09:49:51;;;;;;;10.15;5.57;;;;;;;15.56;69.30;99211.63;5089866;28;20051;-28
2022/11/24 09:52:46;;;;;;;12.45;7.55;;;;;;;16.35;67.50;99233.41;5090057;28;20050;-32
2022/11/24 09:55:36;;;;;;;11.30;5.78;;;;;;;16.70;65.63;99233.50;5075174;28;20237;-29
2022/11/24 09:58:12;;;;;;;8.55;5.57;;;;;;;17.02;63.50;99224.91;5089846;28;20028;-28
2022/11/24 10:00:38;;;;;;;8.60;5.22;;;;;;;17.10;63.02;99224.34;5090087;28;20112;-28
2022/11/24 10:03:04;;;;;;;10.52;5.50;;;;;;;17.48;62.09;99230.69;5071526;28;20031;-28
2022/11/24 10:05:33;;;;;;;9.63;5.70;;;;;;;17.30;60.69;99201.78;5089737;28;20032;-31
2022/11/24 10:08:03;;;;;;;14.60;6.82;;;;;;;16.79;59.73;99221.03;5089607;28;20451;-28
2022/11/24 10:10:55;;;;;;;8.60;4.90;;;;;;;16.66;62.36;99217.09;5071530;28;20514;-28
2022/11/24 10:13:49;;;;;;;9.77;4.72;;;;;;;17.03;60.74;99221.16;5089358;28;20047;-28
2022/11/24 10:16:33;;;;;;;10.68;5.63;;;;;;;17.01;60.30;99207.16;5089820;28;20643;-30
2022/11/24 10:19:01;;;;;;;10.75;5.30;;;;;;;17.53;58.26;99224.47;5089717;28;20028;-31
2022/11/24 10:21:41;;;;;;;9.45;5.07;;;;;;;17.70;60.03;99223.22;5089719;28;20027;-26
2022/11/24 10:24:13;;;;;;;10.75;5.72;;;;;;;18.27;57.83;99227.66;5089401;28;20044;-28
2022/11/24 10:26:42;;;;;;;10.45;5.55;;;;;;;18.92;55.84;99217.31;5070634;28;20028;-27
2022/11/24 10:29:31;;;;;;;9.15;5.10;;;;;;;18.95;53.98;99219.44;5054652;28;20039;-27
2022/11/24 10:31:57;;;;;;;7.32;4.38;;;;;;;18.78;54.32;99201.84;5070935;28;20415;-29
2022/11/24 10:34:30;;;;;;;6.63;3.85;;;;;;;18.20;55.04;99210.22;5089196;28;20032;-29
2022/11/24 10:36:55;;;;;;;7.43;2.90;;;;;;;17.97;52.81;99214.56;5089572;28;20027;-27
2022/11/24 10:39:50;;;;;;;4.60;2.60;;;;;;;18.48;51.39;99220.09;5089312;28;20097;-27
2022/11/24 10:42:30;;;;;;;5.13;3.42;;;;;;;18.83;50.86;99223.38;5080095;28;20036;-27
2022/11/24 10:45:00;;;;;;;6.28;3.30;;;;;;;18.84;50.69;99208.78;5088943;28;20121;-28
2022/11/24 10:47:26;;;;;;;7.15;3.35;;;;;;;18.96;51.53;99216.44;5089221;28;20035;-29
2022/11/24 10:50:00;;;;;;;8.43;3.85;;;;;;;19.00;49.50;99216.63;5088722;28;20052;-30
2022/11/24 10:52:28;;;;;;;9.60;3.28;;;;;;;18.37;52.21;99224.03;5089275;28;20051;-32
2022/11/24 10:54:57;;;;;;;;;;;;;;;17.99;53.12;99217.78;5089493;28;20182;-26
2022/11/24 10:57:34;;;;;;;8.25;4.40;;;;;;;17.68;54.72;99221.59;5088747;28;20010;-29
2022/11/24 11:00:03;;;;;;;6.88;3.78;;;;;;;17.03;55.75;99207.69;5088998;28;20036;-29
2022/11/24 11:02:29;;;;;;;8.25;4.47;;;;;;;16.90;56.60;99214.53;5089034;28;20043;-28
2022/11/24 11:04:54;;;;;;;6.63;4.05;;;;;;;17.02;57.63;99222.22;5088745;28;20020;-27
2022/11/24 11:07:23;;;;;;;8.05;4.68;;;;;;;17.10;56.77;99216.25;5070586;28;20028;-26
2022/11/24 11:09:49;;;;;;;10.73;4.65;;;;;;;17.00;58.19;99194.75;5070009;28;20028;-27
2022/11/24 11:12:26;;;;;;;7.97;4.28;;;;;;;17.17;58.53;99215.91;5088794;28;20032;-27
2022/11/24 11:14:51;;;;;;;9.48;4.28;;;;;;;17.44;58.36;99215.38;5070166;28;20385;-31
2022/11/24 11:17:37;;;;;;;8.50;4.05;;;;;;;16.97;58.66;99206.13;5088327;28;20503;-27
2022/11/24 11:20:30;;;;;;;6.55;4.00;;;;;;;16.65;59.15;99194.75;5088256;28;20491;-30
2022/11/24 11:22:59;;;;;;;8.77;4.72;;;;;;;17.33;58.45;99205.81;5070337;28;20101;-28
2022/11/24 11:25:35;;;;;;;7.35;4.55;;;;;;;17.66;56.89;99185.22;5053548;28;20456;-28
2022/11/24 11:28:29;;;;;;;8.63;4.30;;;;;;;17.82;55.61;99199.34;5088250;28;20032;-27
2022/11/24 11:31:04;;;;;;;9.65;4.82;;;;;;;17.72;58.41;99194.88;5066211;28;20423;-27
2022/11/24 11:33:32;;;;;;;10.57;4.80;;;;;;;17.76;56.23;99179.72;5070040;28;20104;-30